Αρχική σελίδα
METAR-TAF:

METAR-TAF

Αεροδρόμια :

Αεροδρόμιο του Ντουμπάι

Ντουμπάι, Ηνωμένα Αραβικά Εμιράτα

γεωγραφικό πλάτος: 25-15-10N, γεωγραφικό μήκος: 055-21-52E, υψόμετρο: 8 μ

Παρών καιρός

Η αναφορά έγινε 6 λεπτά πριν, στις 00:00 UTC
Άνεμος 8 kt από Β/BA, μεταβλητός μεταξύ Β και Α/BA
Θερμοκρασία 34°C
Υγρασία 71%
Πίεση 998 hPa
Ορατότητα: 8000 μ

METAR: OMDB 170000Z 03008KT 350V070 8000 NSC 34/28 Q0998 BECMG 14012KT

Χρόνος: 04:06 (00:06 UTC)

Πρόγνωση Καιρού

Η αναφορά έγινε 1 ώρα και 10 λεπτά πριν, στις 22:56 UTC
Η πρόγνωση ισχύει από τις 17 στις 00 UTC έως τις 18 στις 06 UTC
Άνεμος 5 kt από Α/NA
Ορατότητα: 8000 μ
Καθιστάμενος
από 17 στις 07 UTC έως τις 17 στις 09 UTC
Άνεμος 12 kt από
Καθιστάμενος
από 17 στις 17 UTC έως τις 17 στις 19 UTC
Άνεμος 5 kt από Α

TAF: OMDB 162256Z 1700/1806 12005KT 8000 NSC BECMG 1707/1709 32012KT BECMG 1717/1719 09005KT

Μετεωρολογικές αναφορές και προγνώσεις για περισσότερα από 4000 αεροδρόμια (δελτία METAR και TAF).

Οι διαθέσιμοι σταθμοί απεικονίζονται στο χάρτη με κίτρινες και κόκκινες κουκκίδες.

Μετακινήστε το ποντίκι πάνω από τις κουκκίδες για να δείτε το όνομα του σταθμού.

Στη συνέχεια, κάντε κλικ για να δείτε τις μετεωρολογικές αναφορές και τις προγνώσεις καιρού.

Για να αλλάξετε το χάρτη: κάντε κλικ στα πράσινα κουμπιά με τον μαύρο σταυρό για να ζουμάρετε, στο πράσινο κουμπί με την παύλα για να αφαιρέσετε το ζουμ ή στα πράσινα βέλη για να αντιπαραβάλλετε χάρτες.


METAR-TAF: